Ontario International Airport Ontario US
ICAO: KONT
IATA: ONT
Category: Large
Scheduled Services: Yes

Elevation: 944 ft
TransAlt. 18000 ft.

Airport Communications:
SOCAL APP/DEP:119.65
ATIS:124.25
CLNC DEL:118.1
GND:121.9
TWR:120.6

KONT Zoom In..

Runways:

(A) RW 08L length 12197 ft width 150 ft
ILS 109.70 / hdg 76

(B) RW 08R length 10200 ft width 150 ft
---- / hdg 76

(C) RW 26L length 10200 ft width 150 ft
ILS 111.35 / hdg 256

(D) RW 26R length 12197 ft width 150 ft
ILS 109.70 / hdg 256

Location; KONT
Day. 24 / Time. 06.53 Zulu
* Altimeter: 30.03
* Temperature: 15° c. 59°f.
* Wind from: 240° Speed 08 kn.
Dewpoint: 11° c.
Visibility: 10 Statute Miles.
Clouds: Broken 1500 ft.

KONT 240653Z 24008KT 10SM BKN015 15/11 A3003 RMK AO2 SLP164 T01500106


Wind From 240°
Speed 08 kn.

 
 
jpsmedia.com for Web Design SOUNDCLOUD worldairports.se 2018   terms of use